sensor_id;sensor_type;location;lat;lon;timestamp;P1;durP1;ratioP1;P2;durP2;ratioP2
28068;SDS011;15382;47.578;8.086;2023-01-08T00:03:16;14.52;;;8.13;;
28068;SDS011;15382;47.578;8.086;2023-01-08T00:13:18;23.52;;;10.23;;
28068;SDS011;15382;47.578;8.086;2023-01-08T00:23:19;19.73;;;10.52;;
28068;SDS011;15382;47.578;8.086;2023-01-08T00:33:20;16.80;;;8.40;;
28068;SDS011;15382;47.578;8.086;2023-01-08T00:43:22;19.23;;;10.35;;
28068;SDS011;15382;47.578;8.086;2023-01-08T00:53:23;20.77;;;10.02;;
28068;SDS011;15382;47.578;8.086;2023-01-08T01:03:24;20.98;;;9.90;;
28068;SDS011;15382;47.578;8.086;2023-01-08T01:13:25;21.98;;;10.95;;
28068;SDS011;15382;47.578;8.086;2023-01-08T01:23:25;25.90;;;11.60;;
28068;SDS011;15382;47.578;8.086;2023-01-08T01:33:28;24.83;;;10.38;;
28068;SDS011;15382;47.578;8.086;2023-01-08T01:53:41;22.58;;;11.80;;
28068;SDS011;15382;47.578;8.086;2023-01-08T02:03:42;25.77;;;12.27;;
28068;SDS011;15382;47.578;8.086;2023-01-08T02:13:46;25.88;;;12.02;;
28068;SDS011;15382;47.578;8.086;2023-01-08T02:34:13;27.98;;;12.93;;
28068;SDS011;15382;47.578;8.086;2023-01-08T02:44:16;22.33;;;11.45;;
28068;SDS011;15382;47.578;8.086;2023-01-08T02:54:23;22.13;;;10.43;;
28068;SDS011;15382;47.578;8.086;2023-01-08T03:04:32;30.85;;;11.52;;
28068;SDS011;15382;47.578;8.086;2023-01-08T03:14:46;22.70;;;11.60;;
28068;SDS011;15382;47.578;8.086;2023-01-08T03:24:53;22.55;;;11.43;;
28068;SDS011;15382;47.578;8.086;2023-01-08T03:34:57;22.77;;;11.35;;
28068;SDS011;15382;47.578;8.086;2023-01-08T03:45:00;23.58;;;11.38;;
28068;SDS011;15382;47.578;8.086;2023-01-08T03:55:02;22.10;;;10.82;;
28068;SDS011;15382;47.578;8.086;2023-01-08T04:05:04;17.65;;;9.38;;
28068;SDS011;15382;47.578;8.086;2023-01-08T04:15:05;22.40;;;10.40;;
28068;SDS011;15382;47.578;8.086;2023-01-08T04:25:06;20.10;;;11.00;;
28068;SDS011;15382;47.578;8.086;2023-01-08T04:35:07;24.25;;;11.63;;
28068;SDS011;15382;47.578;8.086;2023-01-08T04:45:09;26.00;;;12.32;;
28068;SDS011;15382;47.578;8.086;2023-01-08T04:55:11;29.02;;;13.02;;
28068;SDS011;15382;47.578;8.086;2023-01-08T05:05:15;27.25;;;13.13;;
28068;SDS011;15382;47.578;8.086;2023-01-08T05:15:16;29.95;;;12.77;;
28068;SDS011;15382;47.578;8.086;2023-01-08T05:25:18;25.80;;;11.60;;
28068;SDS011;15382;47.578;8.086;2023-01-08T05:35:20;26.02;;;12.63;;
28068;SDS011;15382;47.578;8.086;2023-01-08T05:45:21;30.92;;;14.52;;
28068;SDS011;15382;47.578;8.086;2023-01-08T05:55:22;27.52;;;12.48;;
28068;SDS011;15382;47.578;8.086;2023-01-08T06:05:23;26.05;;;11.73;;
28068;SDS011;15382;47.578;8.086;2023-01-08T06:15:25;25.95;;;12.93;;
28068;SDS011;15382;47.578;8.086;2023-01-08T06:25:26;24.42;;;11.90;;
28068;SDS011;15382;47.578;8.086;2023-01-08T06:35:27;25.63;;;12.48;;
28068;SDS011;15382;47.578;8.086;2023-01-08T06:45:28;23.65;;;11.18;;
28068;SDS011;15382;47.578;8.086;2023-01-08T06:55:29;31.48;;;13.50;;
28068;SDS011;15382;47.578;8.086;2023-01-08T07:05:31;27.35;;;12.60;;
28068;SDS011;15382;47.578;8.086;2023-01-08T07:15:35;27.27;;;13.05;;
28068;SDS011;15382;47.578;8.086;2023-01-08T07:25:36;24.98;;;12.55;;
28068;SDS011;15382;47.578;8.086;2023-01-08T07:35:39;28.13;;;12.52;;
28068;SDS011;15382;47.578;8.086;2023-01-08T07:45:40;29.73;;;14.38;;
28068;SDS011;15382;47.578;8.086;2023-01-08T07:55:41;20.98;;;10.60;;
28068;SDS011;15382;47.578;8.086;2023-01-08T08:15:42;30.67;;;14.27;;
28068;SDS011;15382;47.578;8.086;2023-01-08T08:25:44;51.13;;;27.52;;
28068;SDS011;15382;47.578;8.086;2023-01-08T08:35:48;32.28;;;18.33;;
28068;SDS011;15382;47.578;8.086;2023-01-08T08:45:50;28.92;;;14.40;;
28068;SDS011;15382;47.578;8.086;2023-01-08T08:55:52;26.33;;;13.60;;
28068;SDS011;15382;47.578;8.086;2023-01-08T09:05:55;24.70;;;12.65;;
28068;SDS011;15382;47.578;8.086;2023-01-08T09:15:57;28.58;;;13.65;;
28068;SDS011;15382;47.578;8.086;2023-01-08T09:26:00;34.92;;;18.13;;
28068;SDS011;15382;47.578;8.086;2023-01-08T09:36:02;28.40;;;14.30;;
28068;SDS011;15382;47.578;8.086;2023-01-08T09:46:03;27.50;;;13.30;;
28068;SDS011;15382;47.578;8.086;2023-01-08T09:56:10;64.70;;;26.27;;
28068;SDS011;15382;47.578;8.086;2023-01-08T10:06:16;31.98;;;15.95;;
28068;SDS011;15382;47.578;8.086;2023-01-08T10:26:31;24.33;;;12.65;;
28068;SDS011;15382;47.578;8.086;2023-01-08T10:36:40;23.05;;;12.88;;
28068;SDS011;15382;47.578;8.086;2023-01-08T10:46:47;26.60;;;14.65;;
28068;SDS011;15382;47.578;8.086;2023-01-08T10:56:52;27.40;;;14.15;;
28068;SDS011;15382;47.578;8.086;2023-01-08T11:06:53;33.55;;;18.50;;
28068;SDS011;15382;47.578;8.086;2023-01-08T11:16:58;26.83;;;14.65;;
28068;SDS011;15382;47.578;8.086;2023-01-08T11:37:13;35.67;;;19.00;;
28068;SDS011;15382;47.578;8.086;2023-01-08T11:47:37;26.10;;;13.43;;
28068;SDS011;15382;47.578;8.086;2023-01-08T12:39:53;24.50;;;13.55;;
28068;SDS011;15382;47.578;8.086;2023-01-08T13:00:36;19.50;;;11.30;;
28068;SDS011;15382;47.578;8.086;2023-01-08T13:10:48;24.27;;;13.25;;
28068;SDS011;15382;47.578;8.086;2023-01-08T13:20:53;22.88;;;12.93;;
28068;SDS011;15382;47.578;8.086;2023-01-08T13:31:05;22.25;;;12.98;;
28068;SDS011;15382;47.578;8.086;2023-01-08T13:41:30;20.40;;;11.75;;
28068;SDS011;15382;47.578;8.086;2023-01-08T14:01:50;23.80;;;13.07;;
28068;SDS011;15382;47.578;8.086;2023-01-08T14:11:53;22.07;;;12.47;;
28068;SDS011;15382;47.578;8.086;2023-01-08T14:21:57;27.17;;;13.52;;
28068;SDS011;15382;47.578;8.086;2023-01-08T14:32:11;28.58;;;14.45;;
28068;SDS011;15382;47.578;8.086;2023-01-08T14:42:32;32.90;;;18.10;;
28068;SDS011;15382;47.578;8.086;2023-01-08T14:52:43;32.30;;;17.50;;
28068;SDS011;15382;47.578;8.086;2023-01-08T15:02:44;36.55;;;18.70;;
28068;SDS011;15382;47.578;8.086;2023-01-08T15:12:54;29.52;;;15.75;;
28068;SDS011;15382;47.578;8.086;2023-01-08T15:22:56;25.88;;;14.07;;
28068;SDS011;15382;47.578;8.086;2023-01-08T15:43:18;25.30;;;13.63;;
28068;SDS011;15382;47.578;8.086;2023-01-08T15:53:19;23.25;;;13.07;;
28068;SDS011;15382;47.578;8.086;2023-01-08T16:03:24;23.13;;;13.45;;
28068;SDS011;15382;47.578;8.086;2023-01-08T16:23:25;21.93;;;11.87;;
28068;SDS011;15382;47.578;8.086;2023-01-08T16:33:27;25.33;;;12.52;;
28068;SDS011;15382;47.578;8.086;2023-01-08T16:43:30;22.50;;;12.52;;
28068;SDS011;15382;47.578;8.086;2023-01-08T16:53:39;24.15;;;14.02;;
28068;SDS011;15382;47.578;8.086;2023-01-08T17:03:41;25.92;;;14.25;;
28068;SDS011;15382;47.578;8.086;2023-01-08T17:13:43;29.08;;;15.57;;
28068;SDS011;15382;47.578;8.086;2023-01-08T17:33:46;36.63;;;18.63;;
28068;SDS011;15382;47.578;8.086;2023-01-08T17:43:50;37.92;;;18.27;;
28068;SDS011;15382;47.578;8.086;2023-01-08T18:03:52;35.72;;;18.02;;
28068;SDS011;15382;47.578;8.086;2023-01-08T18:23:54;35.75;;;18.92;;
28068;SDS011;15382;47.578;8.086;2023-01-08T18:43:56;42.15;;;21.60;;
28068;SDS011;15382;47.578;8.086;2023-01-08T19:03:58;49.58;;;24.58;;
28068;SDS011;15382;47.578;8.086;2023-01-08T19:13:59;31.83;;;15.90;;
28068;SDS011;15382;47.578;8.086;2023-01-08T19:34:01;35.17;;;17.33;;
28068;SDS011;15382;47.578;8.086;2023-01-08T19:44:02;28.33;;;14.68;;
28068;SDS011;15382;47.578;8.086;2023-01-08T19:54:04;36.10;;;19.60;;
28068;SDS011;15382;47.578;8.086;2023-01-08T20:14:06;31.27;;;15.17;;
28068;SDS011;15382;47.578;8.086;2023-01-08T20:24:07;30.67;;;16.60;;
28068;SDS011;15382;47.578;8.086;2023-01-08T20:34:13;30.38;;;16.33;;
28068;SDS011;15382;47.578;8.086;2023-01-08T20:44:15;35.95;;;17.80;;
28068;SDS011;15382;47.578;8.086;2023-01-08T20:54:18;36.40;;;17.13;;
28068;SDS011;15382;47.578;8.086;2023-01-08T21:14:19;38.22;;;17.00;;
28068;SDS011;15382;47.578;8.086;2023-01-08T21:34:21;39.80;;;17.10;;
28068;SDS011;15382;47.578;8.086;2023-01-08T21:44:24;48.50;;;20.40;;
28068;SDS011;15382;47.578;8.086;2023-01-08T21:54:44;44.95;;;18.60;;
28068;SDS011;15382;47.578;8.086;2023-01-08T22:14:46;41.93;;;18.40;;
28068;SDS011;15382;47.578;8.086;2023-01-08T22:24:49;39.75;;;18.17;;
28068;SDS011;15382;47.578;8.086;2023-01-08T22:34:51;38.65;;;18.33;;
28068;SDS011;15382;47.578;8.086;2023-01-08T22:54:52;44.37;;;19.40;;
28068;SDS011;15382;47.578;8.086;2023-01-08T23:04:56;37.83;;;17.92;;
28068;SDS011;15382;47.578;8.086;2023-01-08T23:14:57;33.40;;;17.25;;
28068;SDS011;15382;47.578;8.086;2023-01-08T23:24:59;39.35;;;18.02;;
28068;SDS011;15382;47.578;8.086;2023-01-08T23:45:00;42.00;;;19.17;;
28068;SDS011;15382;47.578;8.086;2023-01-08T23:55:02;37.40;;;17.70;;
